Time;durP1;ratioP1;P1;durP2;ratioP2;P2;SDS_P1;SDS_P2;PMS_P1;PMS_P2;Temp;Humidity;BMP_temperature;BMP_pressure;BME280_temperature;BME280_humidity;BME280_pressure;Samples;Min_cycle;Max_cycle;Signal;HPM_P1;HPM_P2
2020/12/11 00:01:20;;;;;;;50.52;23.02;;;;;;;0.20;100.00;99388.82;1742238;82;21042;-70
2020/12/11 00:03:48;;;;;;;51.67;24.10;;;;;;;0.20;100.00;99378.30;1742374;82;21521;-70
2020/12/11 00:06:23;;;;;;;50.75;24.92;;;;;;;0.18;100.00;99390.02;1742367;82;21082;-68
2020/12/11 00:08:51;;;;;;;50.28;26.10;;;;;;;0.19;100.00;99381.61;1742144;82;21043;-70
2020/12/11 00:11:28;;;;;;;51.53;25.72;;;;;;;0.20;100.00;99369.42;1742213;81;21153;-67
2020/12/11 00:14:02;;;;;;;50.05;23.87;;;;;;;0.29;100.00;99397.39;1843431;77;22226;-69
2020/12/11 00:16:30;;;;;;;60.65;26.50;;;;;;;0.24;100.00;99366.66;1736906;83;21189;-69
2020/12/11 00:18:57;;;;;;;54.88;28.62;;;;;;;0.25;100.00;99368.80;1756005;82;21118;-68
2020/12/11 00:21:25;;;;;;;59.35;27.15;;;;;;;0.28;100.00;99365.16;1737007;83;21160;-69
2020/12/11 00:23:52;;;;;;;52.53;27.62;;;;;;;0.28;100.00;99370.23;1756026;82;21115;-70
2020/12/11 00:26:20;;;;;;;52.62;26.00;;;;;;;0.27;100.00;99392.61;1736725;83;21164;-68
2020/12/11 00:28:48;;;;;;;55.63;26.25;;;;;;;0.29;100.00;99393.17;1755771;82;21202;-70
2020/12/11 00:31:39;;;;;;;56.48;26.80;;;;;;;0.30;100.00;99369.53;1736942;83;21528;-69
2020/12/11 00:34:07;;;;;;;59.77;28.57;;;;;;;0.33;100.00;99371.38;1574170;91;21633;-67
2020/12/11 00:36:35;;;;;;;51.53;26.07;;;;;;;0.34;100.00;99382.03;1579099;91;21221;-70
2020/12/11 00:39:03;;;;;;;57.93;26.12;;;;;;;0.37;100.00;99372.91;1579142;91;21222;-70
2020/12/11 00:41:31;;;;;;;44.95;25.12;;;;;;;0.36;100.00;99357.61;1579081;91;21752;-70
2020/12/11 00:43:58;;;;;;;51.68;23.67;;;;;;;0.34;100.00;99375.69;1579113;91;21169;-69
2020/12/11 00:46:26;;;;;;;48.95;23.83;;;;;;;0.34;100.00;99367.67;1579294;91;21207;-67
2020/12/11 00:48:54;;;;;;;45.95;20.02;;;;;;;0.33;100.00;99375.18;1574894;91;21599;-68
2020/12/11 00:51:24;;;;;;;44.15;22.55;;;;;;;0.34;100.00;99362.99;1574864;89;21213;-68
2020/12/11 00:53:54;;;;;;;52.55;25.70;;;;;;;0.34;100.00;99378.22;1574919;91;21747;-68
2020/12/11 00:56:24;;;;;;;47.40;23.52;;;;;;;0.32;100.00;99372.17;1569375;89;21615;-67
2020/12/11 00:58:51;;;;;;;51.37;24.80;;;;;;;0.31;100.00;99408.11;1574774;91;21234;-67
2020/12/11 01:01:19;;;;;;;45.75;23.27;;;;;;;0.32;100.00;99374.71;1574766;89;21241;-67
2020/12/11 01:03:47;;;;;;;45.58;23.85;;;;;;;0.33;100.00;99347.26;1575005;91;21204;-69
2020/12/11 01:06:15;;;;;;;44.38;24.15;;;;;;;0.34;100.00;99359.19;1575010;89;21366;-68
2020/12/11 01:08:42;;;;;;;41.65;20.88;;;;;;;0.34;100.00;99371.88;1574936;91;21278;-68
2020/12/11 01:11:10;;;;;;;40.25;21.07;;;;;;;0.33;100.00;99362.13;1574737;89;21655;-67
2020/12/11 01:13:38;;;;;;;39.15;20.90;;;;;;;0.32;100.00;99372.17;1574709;91;21212;-68
2020/12/11 01:16:06;;;;;;;35.20;18.90;;;;;;;0.34;100.00;99357.52;1574751;89;21192;-69
2020/12/11 01:18:33;;;;;;;43.23;23.62;;;;;;;0.35;100.00;99383.37;1574874;91;21196;-70
2020/12/11 01:21:01;;;;;;;37.50;19.17;;;;;;;0.35;100.00;99366.00;1574944;89;21213;-69
2020/12/11 01:23:29;;;;;;;44.53;21.93;;;;;;;0.34;100.00;99381.63;1574834;91;21356;-67
2020/12/11 01:25:56;;;;;;;43.75;21.17;;;;;;;0.34;100.00;99351.17;1574311;89;21363;-69
2020/12/11 01:28:24;;;;;;;40.92;19.60;;;;;;;0.37;100.00;99356.81;1574305;91;21185;-67
2020/12/11 01:30:52;;;;;;;43.83;22.70;;;;;;;0.37;100.00;99378.39;1573629;89;21222;-68
2020/12/11 01:33:19;;;;;;;41.00;22.02;;;;;;;0.38;100.00;99369.61;1574019;91;21784;-68
2020/12/11 01:35:47;;;;;;;40.23;20.25;;;;;;;0.39;100.00;99352.30;1574010;91;21325;-67
2020/12/11 01:38:15;;;;;;;50.40;22.17;;;;;;;0.40;100.00;99351.91;1574045;91;21213;-68
2020/12/11 01:40:44;;;;;;;42.45;20.60;;;;;;;0.39;100.00;99337.47;1539862;93;21636;-68
2020/12/11 01:43:13;;;;;;;35.60;19.95;;;;;;;0.41;100.00;99344.79;1574375;91;21123;-67
2020/12/11 01:45:40;;;;;;;42.95;19.57;;;;;;;0.40;100.00;99343.02;1577707;91;21229;-66
2020/12/11 01:48:08;;;;;;;37.10;20.37;;;;;;;0.40;100.00;99332.86;1574118;91;21644;-68
2020/12/11 01:50:36;;;;;;;38.95;20.92;;;;;;;0.41;100.00;99338.04;1539841;93;21236;-67
2020/12/11 01:53:04;;;;;;;47.48;21.45;;;;;;;0.38;100.00;99334.44;1562421;91;21217;-67
2020/12/11 01:55:32;;;;;;;41.73;20.15;;;;;;;0.39;100.00;99354.84;1570342;91;21400;-69
2020/12/11 01:58:01;;;;;;;35.25;19.37;;;;;;;0.40;100.00;99329.05;1549142;93;21380;-67
2020/12/11 02:00:29;;;;;;;35.15;19.48;;;;;;;0.42;100.00;99327.48;1578022;91;21297;-69
2020/12/11 02:03:06;;;;;;;45.52;20.15;;;;;;;0.43;100.00;99335.57;1574051;91;21328;-69
2020/12/11 02:05:34;;;;;;;48.02;22.00;;;;;;;0.41;99.97;99340.58;1571980;91;21217;-68
2020/12/11 02:08:02;;;;;;;40.50;21.57;;;;;;;0.40;99.96;99329.92;1573806;91;21238;-69
2020/12/11 02:10:30;;;;;;;49.38;24.60;;;;;;;0.39;99.89;99345.09;1573806;91;21654;-69
2020/12/11 02:13:08;;;;;;;39.08;19.15;;;;;;;0.42;99.84;99320.73;1573697;91;21347;-70
2020/12/11 02:15:35;;;;;;;40.43;21.30;;;;;;;0.41;99.57;99334.23;1571325;91;21199;-69
2020/12/11 02:18:04;;;;;;;37.23;18.67;;;;;;;0.40;99.62;99349.37;1573720;91;21218;-68
2020/12/11 02:20:32;;;;;;;41.20;20.10;;;;;;;0.38;99.65;99340.41;1569984;91;21313;-69
2020/12/11 02:22:59;;;;;;;38.70;18.65;;;;;;;0.38;99.65;99356.91;1573722;91;21256;-70
2020/12/11 02:25:27;;;;;;;40.43;20.12;;;;;;;0.38;99.63;99339.52;1574054;91;21326;-70
2020/12/11 02:27:54;;;;;;;35.52;19.85;;;;;;;0.40;99.49;99331.59;1538482;93;21189;-70
2020/12/11 02:30:22;;;;;;;37.88;19.80;;;;;;;0.40;99.35;99336.67;1526292;94;21205;-69
2020/12/11 02:32:50;;;;;;;38.05;18.73;;;;;;;0.37;99.32;99334.84;1527344;94;21212;-69
2020/12/11 02:35:19;;;;;;;36.08;19.05;;;;;;;0.35;99.36;99327.92;1553457;92;21228;-69
2020/12/11 02:37:46;;;;;;;35.28;19.32;;;;;;;0.37;99.24;99363.16;1553747;92;21361;-70
2020/12/11 02:40:14;;;;;;;35.00;18.25;;;;;;;0.36;99.06;99334.37;1553479;92;21672;-69
2020/12/11 02:42:41;;;;;;;34.40;17.75;;;;;;;0.36;99.23;99337.31;1553497;92;21222;-69
2020/12/11 02:45:09;;;;;;;36.15;18.40;;;;;;;0.33;99.16;99366.30;1553493;92;21222;-69
2020/12/11 02:47:36;;;;;;;33.30;18.05;;;;;;;0.32;99.24;99339.17;1553659;92;21241;-69
2020/12/11 02:50:04;;;;;;;35.17;18.57;;;;;;;0.33;99.23;99349.80;1553480;92;21298;-69
2020/12/11 02:52:31;;;;;;;37.67;18.50;;;;;;;0.33;99.32;99339.64;1553620;92;21235;-69
2020/12/11 02:55:00;;;;;;;35.80;18.10;;;;;;;0.31;99.24;99362.82;1553480;92;21234;-69
2020/12/11 02:57:29;;;;;;;28.17;15.08;;;;;;;0.32;99.29;99341.72;1553710;92;21242;-69
2020/12/11 02:59:56;;;;;;;36.45;18.10;;;;;;;0.31;99.23;99341.25;1553698;92;21628;-68
2020/12/11 03:02:24;;;;;;;35.60;18.35;;;;;;;0.27;99.36;99342.71;1553798;92;21229;-68
2020/12/11 03:04:52;;;;;;;36.08;15.48;;;;;;;0.26;99.29;99355.33;1553467;92;21601;-69
2020/12/11 03:07:20;;;;;;;29.48;16.30;;;;;;;0.27;98.93;99338.91;1553476;92;21371;-67
2020/12/11 03:09:48;;;;;;;33.58;16.48;;;;;;;0.26;98.99;99367.63;1553664;92;21223;-68
2020/12/11 03:12:16;;;;;;;34.53;18.67;;;;;;;0.24;98.78;99373.40;1553761;92;21624;-69
2020/12/11 03:14:44;;;;;;;34.92;17.77;;;;;;;0.20;98.98;99336.80;1553466;92;21199;-68
2020/12/11 03:17:11;;;;;;;40.30;19.82;;;;;;;0.19;99.02;99330.84;1553635;92;21625;-69
2020/12/11 03:19:38;;;;;;;34.27;16.77;;;;;;;0.21;98.94;99344.91;1553541;92;21214;-68
2020/12/11 03:22:06;;;;;;;36.88;18.45;;;;;;;0.23;98.84;99334.46;1553623;92;21222;-67
2020/12/11 03:24:33;;;;;;;37.35;18.15;;;;;;;0.24;98.53;99341.67;1553603;92;21717;-68
2020/12/11 03:27:01;;;;;;;33.75;16.70;;;;;;;0.25;98.56;99340.47;1553508;92;21381;-70
2020/12/11 03:29:29;;;;;;;37.70;19.05;;;;;;;0.21;98.58;99330.55;1553697;92;21344;-69
2020/12/11 03:31:56;;;;;;;36.45;18.27;;;;;;;0.18;98.52;99346.88;1553487;92;21230;-67
2020/12/11 03:34:24;;;;;;;32.83;16.85;;;;;;;0.19;98.70;99337.59;1549012;91;21368;-67
2020/12/11 03:36:52;;;;;;;32.60;17.87;;;;;;;0.19;98.64;99367.65;1547613;93;21713;-69
2020/12/11 03:39:21;;;;;;;33.23;17.85;;;;;;;0.18;98.56;99346.01;1524479;94;21355;-67
2020/12/11 03:41:51;;;;;;;35.05;16.00;;;;;;;0.19;98.56;99328.31;1524520;94;21619;-68
2020/12/11 03:44:20;;;;;;;41.50;19.35;;;;;;;0.17;98.48;99337.49;1547865;93;21252;-67
2020/12/11 03:46:47;;;;;;;32.85;16.10;;;;;;;0.14;98.44;99374.12;1547787;93;21218;-67
2020/12/11 03:49:15;;;;;;;35.48;18.55;;;;;;;0.13;98.31;99345.73;1524476;94;21644;-69
2020/12/11 03:51:43;;;;;;;32.88;16.80;;;;;;;0.12;98.45;99337.63;1524397;94;21350;-68
2020/12/11 03:54:10;;;;;;;33.83;18.92;;;;;;;0.13;98.31;99342.33;1524188;94;21261;-69
2020/12/11 03:56:38;;;;;;;37.70;18.42;;;;;;;0.11;98.31;99340.95;1524416;94;21229;-69
2020/12/11 03:59:05;;;;;;;35.70;17.62;;;;;;;0.09;98.33;99337.84;1524316;94;21616;-68
2020/12/11 04:01:33;;;;;;;37.28;18.45;;;;;;;0.10;98.32;99343.03;1524230;94;21237;-68
2020/12/11 04:04:01;;;;;;;35.03;17.85;;;;;;;0.10;98.02;99341.76;1524388;94;21346;-68
2020/12/11 04:06:28;;;;;;;39.00;19.27;;;;;;;0.05;98.07;99340.61;1547604;93;21377;-68
2020/12/11 04:08:56;;;;;;;36.38;17.32;;;;;;;0.06;98.18;99357.58;1547850;93;21340;-68
2020/12/11 04:11:23;;;;;;;29.75;17.20;;;;;;;0.04;98.22;99350.66;1547680;93;21641;-67
2020/12/11 04:13:51;;;;;;;30.15;16.60;;;;;;;0.03;98.11;99361.21;1547539;93;21377;-68
2020/12/11 04:16:19;;;;;;;34.45;18.70;;;;;;;0.05;98.07;99352.03;1524234;94;21417;-69
2020/12/11 21:03:14;;;;;;;36.10;18.42;;;;;;;-2.74;93.95;99214.26;1818318;77;22164;-62
2020/12/11 21:05:42;;;;;;;36.42;18.48;;;;;;;-2.74;93.90;99220.58;1777013;80;21543;-63
2020/12/11 21:08:09;;;;;;;40.92;20.32;;;;;;;-2.71;93.82;99213.20;1779353;80;21552;-63
2020/12/11 21:10:37;;;;;;;37.05;20.37;;;;;;;-2.70;93.95;99226.30;1778782;78;21179;-63
2020/12/11 21:13:08;;;;;;;40.48;19.32;;;;;;;-2.71;93.98;99210.28;1776790;80;21664;-63
2020/12/11 21:15:36;;;;;;;40.12;17.50;;;;;;;-2.68;94.04;99222.23;1777131;80;21158;-63
2020/12/11 21:18:04;;;;;;;37.05;19.07;;;;;;;-2.68;94.01;99200.37;1788745;78;21295;-63
2020/12/11 21:20:32;;;;;;;32.78;16.05;;;;;;;-2.65;94.07;99213.59;1793761;79;21538;-64
2020/12/11 21:23:00;;;;;;;30.52;17.27;;;;;;;-2.60;93.97;99201.27;1793341;80;21576;-63
2020/12/11 21:25:27;;;;;;;35.03;18.37;;;;;;;-2.59;93.82;99212.75;1775695;78;21138;-64
2020/12/11 21:27:57;;;;;;;32.23;18.85;;;;;;;-2.57;93.86;99202.38;1776304;80;21183;-64
2020/12/11 21:30:25;;;;;;;38.30;19.23;;;;;;;-2.59;93.83;99241.81;1778703;78;21140;-64
2020/12/11 21:32:57;;;;;;;36.50;18.50;;;;;;;-2.57;93.85;99192.63;1776365;80;21584;-63
2020/12/11 21:35:23;;;;;;;30.70;17.20;;;;;;;-2.57;93.82;99204.90;1778800;80;21158;-64
2020/12/11 21:37:54;;;;;;;36.42;19.10;;;;;;;-2.60;93.69;99184.85;1777973;80;21132;-62
2020/12/11 21:40:25;;;;;;;34.50;17.73;;;;;;;-2.62;93.95;99221.01;1775785;78;21269;-61
2020/12/11 21:43:01;;;;;;;34.18;18.23;;;;;;;-2.59;93.73;99197.99;1776669;80;21579;-63
2020/12/11 21:45:29;;;;;;;32.93;17.45;;;;;;;-2.59;93.81;99214.02;1771118;80;21558;-64
2020/12/11 21:47:57;;;;;;;30.60;16.15;;;;;;;-2.58;93.83;99184.17;1762399;81;21168;-66
2020/12/11 21:50:25;;;;;;;42.85;20.30;;;;;;;-2.59;93.82;99193.81;1762380;80;21171;-65
2020/12/11 21:52:54;;;;;;;34.27;18.80;;;;;;;-2.60;93.78;99190.77;1762433;81;21155;-67
2020/12/11 21:55:22;;;;;;;34.18;18.57;;;;;;;-2.56;93.93;99180.11;1762159;80;21297;-62
2020/12/11 21:57:54;;;;;;;35.60;17.75;;;;;;;-2.55;93.99;99180.98;1779290;79;21107;-64
2020/12/11 22:00:24;;;;;;;40.25;20.08;;;;;;;-2.56;93.94;99175.45;1778481;80;21290;-64
2020/12/11 22:02:52;;;;;;;37.55;18.98;;;;;;;-2.61;93.94;99180.19;1778934;79;21143;-63
2020/12/11 22:05:19;;;;;;;38.20;19.50;;;;;;;-2.62;93.91;99211.30;1778119;80;21152;-64
2020/12/11 22:07:51;;;;;;;38.88;18.85;;;;;;;-2.62;94.00;99170.87;1775958;80;21116;-64
2020/12/11 22:10:19;;;;;;;35.83;17.60;;;;;;;-2.62;94.17;99169.61;1777334;80;21134;-63
2020/12/11 22:12:47;;;;;;;35.33;19.92;;;;;;;-2.59;94.20;99168.55;1778996;79;21114;-63
2020/12/11 22:15:15;;;;;;;33.10;18.05;;;;;;;-2.60;94.23;99179.41;1766188;78;21108;-64
2020/12/11 22:17:44;;;;;;;37.15;18.60;;;;;;;-2.59;94.20;99166.41;1769882;79;21179;-64
2020/12/11 22:20:14;;;;;;;36.85;20.68;;;;;;;-2.60;94.08;99157.93;1775801;80;21152;-64
2020/12/11 22:22:43;;;;;;;37.98;20.60;;;;;;;-2.62;94.34;99158.25;1779854;80;21165;-64
2020/12/11 22:25:15;;;;;;;35.33;19.45;;;;;;;-2.60;94.32;99170.56;1793117;78;21332;-63
2020/12/11 22:27:40;;;;;;;37.20;20.45;;;;;;;-2.59;94.38;99153.78;1787933;79;21564;-65
2020/12/11 22:30:09;;;;;;;35.58;19.65;;;;;;;-2.59;94.31;99150.86;1776751;80;21136;-64
2020/12/11 22:32:37;;;;;;;35.90;17.98;;;;;;;-2.56;94.28;99157.77;1775822;80;21186;-64
2020/12/11 22:35:05;;;;;;;35.90;18.37;;;;;;;-2.56;94.26;99154.84;1775573;79;21167;-64
2020/12/11 22:37:32;;;;;;;37.33;19.90;;;;;;;-2.55;94.37;99137.63;1776747;79;21114;-65
2020/12/11 22:40:00;;;;;;;42.17;21.33;;;;;;;-2.57;94.43;99161.95;1778548;79;21276;-64
2020/12/11 22:42:29;;;;;;;35.17;20.80;;;;;;;-2.56;94.58;99148.53;1765840;79;21187;-64
2020/12/11 22:44:58;;;;;;;44.27;20.77;;;;;;;-2.53;94.55;99153.77;1760922;81;21222;-64
2020/12/11 22:47:26;;;;;;;41.68;20.90;;;;;;;-2.52;94.32;99160.59;1760511;80;21218;-64
2020/12/11 22:49:54;;;;;;;41.75;21.65;;;;;;;-2.54;94.38;99146.98;1760460;81;21211;-65
2020/12/11 22:52:25;;;;;;;37.83;20.12;;;;;;;-2.52;94.42;99140.38;1760291;80;21760;-64
2020/12/11 22:54:53;;;;;;;33.70;18.82;;;;;;;-2.54;94.51;99166.33;1760583;80;21219;-65
2020/12/11 22:57:21;;;;;;;34.20;18.32;;;;;;;-2.57;94.48;99161.95;1761630;80;21171;-64
2020/12/11 22:59:48;;;;;;;40.03;20.08;;;;;;;-2.58;94.54;99157.66;1761917;81;21144;-63
2020/12/11 23:02:17;;;;;;;37.38;21.10;;;;;;;-2.55;94.48;99154.45;1759898;81;21188;-64
2020/12/11 23:04:48;;;;;;;39.95;20.45;;;;;;;-2.55;94.61;99161.64;1756590;82;21218;-64
2020/12/11 23:07:17;;;;;;;43.25;20.85;;;;;;;-2.53;94.57;99159.22;1756615;82;21582;-63
2020/12/11 23:09:46;;;;;;;35.60;19.32;;;;;;;-2.53;94.37;99138.61;1756790;81;21211;-63
2020/12/11 23:12:15;;;;;;;39.90;19.90;;;;;;;-2.51;94.52;99150.97;1756811;81;21116;-63
2020/12/11 23:14:44;;;;;;;39.20;20.68;;;;;;;-2.48;94.39;99174.30;1756569;80;21124;-64
2020/12/11 23:17:12;;;;;;;44.25;20.85;;;;;;;-2.53;94.34;99157.95;1756575;80;21120;-64
2020/12/11 23:19:40;;;;;;;37.50;19.40;;;;;;;-2.51;94.53;99153.89;1756628;80;21120;-64
2020/12/11 23:22:08;;;;;;;40.35;20.20;;;;;;;-2.48;94.53;99190.72;1768792;80;21123;-64
2020/12/11 23:24:36;;;;;;;33.13;17.20;;;;;;;-2.49;94.43;99149.81;1770802;80;21121;-64
2020/12/11 23:27:03;;;;;;;37.30;20.10;;;;;;;-2.52;94.51;99177.02;1770331;79;21131;-64
2020/12/11 23:29:31;;;;;;;37.80;18.65;;;;;;;-2.50;94.66;99171.66;1770692;80;21193;-64
2020/12/11 23:31:59;;;;;;;42.50;22.60;;;;;;;-2.49;94.71;99151.08;1769282;79;21580;-64
2020/12/11 23:34:27;;;;;;;36.03;19.40;;;;;;;-2.46;94.78;99155.93;1773193;80;21114;-64
2020/12/11 23:36:55;;;;;;;34.63;18.95;;;;;;;-2.43;94.74;99148.54;1773476;80;21130;-64
2020/12/11 23:39:22;;;;;;;38.55;18.12;;;;;;;-2.44;94.75;99144.27;1762218;79;21113;-65
2020/12/11 23:41:50;;;;;;;35.10;16.97;;;;;;;-2.41;94.71;99141.94;1760519;80;21301;-64
2020/12/11 23:44:17;;;;;;;36.50;19.70;;;;;;;-2.43;94.75;99150.20;1772483;80;21118;-64
2020/12/11 23:46:46;;;;;;;37.48;18.35;;;;;;;-2.43;94.92;99146.02;1773505;80;21269;-65
2020/12/11 23:49:14;;;;;;;40.90;18.52;;;;;;;-2.45;94.93;99139.98;1774333;80;21111;-64
2020/12/11 23:51:48;;;;;;;36.50;19.35;;;;;;;-2.43;94.95;99134.64;1767745;80;21106;-64
2020/12/11 23:54:17;;;;;;;32.05;17.42;;;;;;;-2.42;94.91;99132.63;1775114;80;21679;-64
2020/12/11 23:56:50;;;;;;;34.25;17.05;;;;;;;-2.47;95.08;99140.30;1787742;79;21159;-64
2020/12/11 23:59:18;;;;;;;40.55;19.32;;;;;;;-2.44;95.18;99132.03;1787715;80;21103;-63
